sensor_id;sensor_type;location;lat;lon;timestamp;pressure;altitude;pressure_sealevel;temperature;humidity
69926;BME280;57217;47.286;8.530;2024-02-23T00:25:57;93638.50;;;5.17;100.00
69926;BME280;57217;47.286;8.530;2024-02-23T00:55:59;93667.75;;;5.12;100.00
69926;BME280;57217;47.286;8.530;2024-02-23T01:26:02;93712.56;;;5.21;100.00
69926;BME280;57217;47.286;8.530;2024-02-23T01:56:05;93689.00;;;5.21;100.00
69926;BME280;57217;47.286;8.530;2024-02-23T02:26:08;93633.16;;;4.94;100.00
69926;BME280;57217;47.286;8.530;2024-02-23T02:56:11;93613.16;;;4.76;100.00
69926;BME280;57217;47.286;8.530;2024-02-23T03:26:13;93616.69;;;4.59;100.00
69926;BME280;57217;47.286;8.530;2024-02-23T03:56:16;93587.72;;;4.39;99.51
69926;BME280;57217;47.286;8.530;2024-02-23T04:26:18;93614.38;;;4.24;100.00
69926;BME280;57217;47.286;8.530;2024-02-23T04:56:20;93631.66;;;4.10;100.00
69926;BME280;57217;47.286;8.530;2024-02-23T05:26:23;93641.84;;;3.98;99.73
69926;BME280;57217;47.286;8.530;2024-02-23T05:56:25;93602.69;;;3.87;97.52
69926;BME280;57217;47.286;8.530;2024-02-23T06:26:27;93607.78;;;3.49;100.00
69926;BME280;57217;47.286;8.530;2024-02-23T06:56:29;93612.66;;;3.44;94.96
69926;BME280;57217;47.286;8.530;2024-02-23T07:26:32;93656.97;;;3.65;88.40
69926;BME280;57217;47.286;8.530;2024-02-23T07:56:34;93690.53;;;3.74;78.93
69926;BME280;57217;47.286;8.530;2024-02-23T08:26:36;93671.06;;;4.37;78.44
69926;BME280;57217;47.286;8.530;2024-02-23T08:56:40;93651.59;;;4.83;79.22
69926;BME280;57217;47.286;8.530;2024-02-23T09:26:47;93663.91;;;5.24;81.43
69926;BME280;57217;47.286;8.530;2024-02-23T09:56:51;93611.72;;;5.36;79.04
69926;BME280;57217;47.286;8.530;2024-02-23T10:26:55;93607.75;;;5.55;76.20
69926;BME280;57217;47.286;8.530;2024-02-23T10:56:57;93597.56;;;6.15;76.33
69926;BME280;57217;47.286;8.530;2024-02-23T11:27:01;93602.25;;;7.49;72.96
69926;BME280;57217;47.286;8.530;2024-02-23T11:57:13;93585.66;;;8.37;63.36
69926;BME280;57217;47.286;8.530;2024-02-23T12:27:18;93566.00;;;7.93;73.87
69926;BME280;57217;47.286;8.530;2024-02-23T12:57:20;93545.78;;;7.38;72.71
69926;BME280;57217;47.286;8.530;2024-02-23T13:27:23;93520.81;;;8.72;64.76
69926;BME280;57217;47.286;8.530;2024-02-23T13:57:26;93498.53;;;8.60;65.13
69926;BME280;57217;47.286;8.530;2024-02-23T14:27:28;93482.94;;;8.53;62.73
69926;BME280;57217;47.286;8.530;2024-02-23T14:57:30;93467.91;;;7.92;63.67
69926;BME280;57217;47.286;8.530;2024-02-23T15:27:32;93447.72;;;7.57;65.20
69926;BME280;57217;47.286;8.530;2024-02-23T15:57:35;93430.69;;;6.77;69.08
69926;BME280;57217;47.286;8.530;2024-02-23T16:27:37;93435.25;;;6.56;77.34
69926;BME280;57217;47.286;8.530;2024-02-23T16:57:43;93443.03;;;5.03;82.60
69926;BME280;57217;47.286;8.530;2024-02-23T17:27:46;93456.78;;;4.16;89.32
69926;BME280;57217;47.286;8.530;2024-02-23T17:57:48;93476.41;;;3.97;90.60
69926;BME280;57217;47.286;8.530;2024-02-23T18:27:52;93485.44;;;3.41;98.37
69926;BME280;57217;47.286;8.530;2024-02-23T18:57:57;93497.13;;;3.22;96.35
69926;BME280;57217;47.286;8.530;2024-02-23T19:28:00;93498.72;;;3.05;100.00
69926;BME280;57217;47.286;8.530;2024-02-23T19:58:02;93505.97;;;2.76;100.00
69926;BME280;57217;47.286;8.530;2024-02-23T20:58:53;93535.97;;;2.04;100.00
69926;BME280;57217;47.286;8.530;2024-02-23T21:28:55;93543.78;;;1.90;100.00
69926;BME280;57217;47.286;8.530;2024-02-23T21:58:58;93555.69;;;2.09;100.00
69926;BME280;57217;47.286;8.530;2024-02-23T22:29:01;93573.56;;;1.89;100.00
69926;BME280;57217;47.286;8.530;2024-02-23T22:59:04;93596.66;;;1.76;100.00
69926;BME280;57217;47.286;8.530;2024-02-23T23:29:12;93607.44;;;1.85;100.00
69926;BME280;57217;47.286;8.530;2024-02-23T23:59:15;93626.78;;;1.84;100.00
